sensor_id;sensor_type;location;lat;lon;timestamp;temperature;humidity
45339;DHT22;31071;51.478;5.710;2023-02-08T00:02:15;20.20;65.50
45339;DHT22;31071;51.478;5.710;2023-02-08T00:04:40;20.10;65.70
45339;DHT22;31071;51.478;5.710;2023-02-08T00:07:06;20.10;65.70
45339;DHT22;31071;51.478;5.710;2023-02-08T00:09:31;20.00;65.60
45339;DHT22;31071;51.478;5.710;2023-02-08T00:11:57;20.00;65.60
45339;DHT22;31071;51.478;5.710;2023-02-08T00:14:22;20.00;65.60
45339;DHT22;31071;51.478;5.710;2023-02-08T00:16:48;20.00;65.70
45339;DHT22;31071;51.478;5.710;2023-02-08T00:19:13;19.90;65.60
45339;DHT22;31071;51.478;5.710;2023-02-08T00:21:39;19.90;65.60
45339;DHT22;31071;51.478;5.710;2023-02-08T00:24:05;19.80;65.70
45339;DHT22;31071;51.478;5.710;2023-02-08T00:26:30;19.80;65.70
45339;DHT22;31071;51.478;5.710;2023-02-08T00:28:56;19.70;65.70
45339;DHT22;31071;51.478;5.710;2023-02-08T00:31:21;19.70;65.80
45339;DHT22;31071;51.478;5.710;2023-02-08T00:33:47;19.70;65.80
45339;DHT22;31071;51.478;5.710;2023-02-08T00:36:12;19.60;65.80
45339;DHT22;31071;51.478;5.710;2023-02-08T00:38:38;19.60;65.80
45339;DHT22;31071;51.478;5.710;2023-02-08T00:41:04;19.60;65.80
45339;DHT22;31071;51.478;5.710;2023-02-08T00:43:30;19.50;65.80
45339;DHT22;31071;51.478;5.710;2023-02-08T00:45:56;19.60;65.80
45339;DHT22;31071;51.478;5.710;2023-02-08T00:48:22;19.50;65.70
45339;DHT22;31071;51.478;5.710;2023-02-08T00:51:11;19.50;65.80
45339;DHT22;31071;51.478;5.710;2023-02-08T00:53:40;19.50;65.80
45339;DHT22;31071;51.478;5.710;2023-02-08T00:56:07;19.50;65.60
45339;DHT22;31071;51.478;5.710;2023-02-08T00:58:34;19.40;65.60
45339;DHT22;31071;51.478;5.710;2023-02-08T01:00:59;19.40;65.50
45339;DHT22;31071;51.478;5.710;2023-02-08T01:03:25;19.40;65.50
45339;DHT22;31071;51.478;5.710;2023-02-08T01:05:51;19.40;65.60
45339;DHT22;31071;51.478;5.710;2023-02-08T01:08:17;19.30;65.60
45339;DHT22;31071;51.478;5.710;2023-02-08T01:10:44;19.30;65.60
45339;DHT22;31071;51.478;5.710;2023-02-08T01:13:10;19.30;65.60
45339;DHT22;31071;51.478;5.710;2023-02-08T01:15:36;19.30;65.60
45339;DHT22;31071;51.478;5.710;2023-02-08T01:18:01;19.30;65.60
45339;DHT22;31071;51.478;5.710;2023-02-08T01:20:27;19.30;65.70
45339;DHT22;31071;51.478;5.710;2023-02-08T01:22:54;19.30;65.70
45339;DHT22;31071;51.478;5.710;2023-02-08T01:25:20;19.20;65.60
45339;DHT22;31071;51.478;5.710;2023-02-08T01:27:45;19.20;65.60
45339;DHT22;31071;51.478;5.710;2023-02-08T01:30:11;19.20;65.80
45339;DHT22;31071;51.478;5.710;2023-02-08T01:32:37;19.10;65.60
45339;DHT22;31071;51.478;5.710;2023-02-08T01:35:03;19.10;65.60
45339;DHT22;31071;51.478;5.710;2023-02-08T01:37:28;19.10;65.60
45339;DHT22;31071;51.478;5.710;2023-02-08T01:39:54;19.10;65.70
45339;DHT22;31071;51.478;5.710;2023-02-08T01:42:20;19.10;65.70
45339;DHT22;31071;51.478;5.710;2023-02-08T01:45:20;19.00;65.60
45339;DHT22;31071;51.478;5.710;2023-02-08T01:47:59;18.90;65.70
45339;DHT22;31071;51.478;5.710;2023-02-08T01:50:32;18.90;65.80
45339;DHT22;31071;51.478;5.710;2023-02-08T01:52:59;18.90;65.70
45339;DHT22;31071;51.478;5.710;2023-02-08T01:55:32;18.90;65.80
45339;DHT22;31071;51.478;5.710;2023-02-08T01:58:03;18.90;65.70
45339;DHT22;31071;51.478;5.710;2023-02-08T02:00:30;19.00;65.90
45339;DHT22;31071;51.478;5.710;2023-02-08T02:02:57;18.80;65.70
45339;DHT22;31071;51.478;5.710;2023-02-08T02:05:30;18.80;65.90
45339;DHT22;31071;51.478;5.710;2023-02-08T02:07:57;18.80;65.60
45339;DHT22;31071;51.478;5.710;2023-02-08T02:10:31;18.80;65.80
45339;DHT22;31071;51.478;5.710;2023-02-08T02:13:12;18.80;65.80
45339;DHT22;31071;51.478;5.710;2023-02-08T02:15:39;18.70;65.60
45339;DHT22;31071;51.478;5.710;2023-02-08T02:18:06;18.70;65.70
45339;DHT22;31071;51.478;5.710;2023-02-08T02:24:04;18.70;65.60
45339;DHT22;31071;51.478;5.710;2023-02-08T02:32:45;18.60;65.60
45339;DHT22;31071;51.478;5.710;2023-02-08T02:38:11;18.60;65.70
45339;DHT22;31071;51.478;5.710;2023-02-08T02:41:13;18.60;65.70
45339;DHT22;31071;51.478;5.710;2023-02-08T02:43:53;18.60;65.70
45339;DHT22;31071;51.478;5.710;2023-02-08T02:46:49;18.60;65.70
45339;DHT22;31071;51.478;5.710;2023-02-08T02:49:33;18.50;65.60
45339;DHT22;31071;51.478;5.710;2023-02-08T02:54:42;18.50;65.60
45339;DHT22;31071;51.478;5.710;2023-02-08T02:57:12;18.50;65.70
45339;DHT22;31071;51.478;5.710;2023-02-08T02:59:39;18.50;65.60
45339;DHT22;31071;51.478;5.710;2023-02-08T03:02:05;18.40;65.70
45339;DHT22;31071;51.478;5.710;2023-02-08T03:13:02;18.40;65.80
45339;DHT22;31071;51.478;5.710;2023-02-08T03:23:46;18.30;65.80
45339;DHT22;31071;51.478;5.710;2023-02-08T03:29:10;18.30;65.80
45339;DHT22;31071;51.478;5.710;2023-02-08T03:32:01;18.30;66.40
45339;DHT22;31071;51.478;5.710;2023-02-08T03:34:57;18.30;65.70
45339;DHT22;31071;51.478;5.710;2023-02-08T03:37:34;18.20;65.70
45339;DHT22;31071;51.478;5.710;2023-02-08T03:40:06;18.20;65.70
45339;DHT22;31071;51.478;5.710;2023-02-08T03:42:35;18.20;65.70
45339;DHT22;31071;51.478;5.710;2023-02-08T03:47:41;18.20;65.70
45339;DHT22;31071;51.478;5.710;2023-02-08T03:50:10;18.20;65.70
45339;DHT22;31071;51.478;5.710;2023-02-08T03:52:37;18.10;65.70
45339;DHT22;31071;51.478;5.710;2023-02-08T03:55:11;18.10;65.60
45339;DHT22;31071;51.478;5.710;2023-02-08T03:57:47;18.10;65.80
45339;DHT22;31071;51.478;5.710;2023-02-08T04:00:15;18.10;65.70
45339;DHT22;31071;51.478;5.710;2023-02-08T04:05:36;18.00;65.70
45339;DHT22;31071;51.478;5.710;2023-02-08T04:08:01;18.00;65.80
45339;DHT22;31071;51.478;5.710;2023-02-08T04:10:27;18.00;66.40
45339;DHT22;31071;51.478;5.710;2023-02-08T04:12:53;18.00;65.70
45339;DHT22;31071;51.478;5.710;2023-02-08T04:15:18;18.00;65.80
45339;DHT22;31071;51.478;5.710;2023-02-08T04:17:44;17.90;65.70
45339;DHT22;31071;51.478;5.710;2023-02-08T04:20:09;17.90;65.80
45339;DHT22;31071;51.478;5.710;2023-02-08T04:22:35;17.90;65.80
45339;DHT22;31071;51.478;5.710;2023-02-08T04:25:00;17.90;66.00
45339;DHT22;31071;51.478;5.710;2023-02-08T04:27:26;17.90;65.90
45339;DHT22;31071;51.478;5.710;2023-02-08T04:29:52;17.80;65.90
45339;DHT22;31071;51.478;5.710;2023-02-08T04:32:17;17.80;65.90
45339;DHT22;31071;51.478;5.710;2023-02-08T04:34:42;17.80;65.80
45339;DHT22;31071;51.478;5.710;2023-02-08T04:37:08;17.80;65.90
45339;DHT22;31071;51.478;5.710;2023-02-08T04:39:34;17.70;65.90
45339;DHT22;31071;51.478;5.710;2023-02-08T04:41:59;17.70;66.00
45339;DHT22;31071;51.478;5.710;2023-02-08T04:44:25;17.70;66.00
45339;DHT22;31071;51.478;5.710;2023-02-08T04:46:51;17.60;66.00
45339;DHT22;31071;51.478;5.710;2023-02-08T04:49:17;17.60;66.00
45339;DHT22;31071;51.478;5.710;2023-02-08T04:51:42;17.70;66.10
45339;DHT22;31071;51.478;5.710;2023-02-08T04:54:08;17.60;66.00
45339;DHT22;31071;51.478;5.710;2023-02-08T04:56:34;17.60;66.00
45339;DHT22;31071;51.478;5.710;2023-02-08T04:59:00;17.60;66.00
45339;DHT22;31071;51.478;5.710;2023-02-08T05:01:26;17.50;66.60
45339;DHT22;31071;51.478;5.710;2023-02-08T05:03:51;17.50;66.00
45339;DHT22;31071;51.478;5.710;2023-02-08T05:06:17;17.50;66.20
45339;DHT22;31071;51.478;5.710;2023-02-08T05:08:42;17.50;66.20
45339;DHT22;31071;51.478;5.710;2023-02-08T05:11:08;17.50;66.10
45339;DHT22;31071;51.478;5.710;2023-02-08T05:13:33;17.50;66.10
45339;DHT22;31071;51.478;5.710;2023-02-08T05:15:59;17.50;66.00
45339;DHT22;31071;51.478;5.710;2023-02-08T05:18:24;17.50;66.10
45339;DHT22;31071;51.478;5.710;2023-02-08T05:20:58;17.50;66.00
45339;DHT22;31071;51.478;5.710;2023-02-08T05:23:25;17.50;66.00
45339;DHT22;31071;51.478;5.710;2023-02-08T05:25:51;17.40;66.00
45339;DHT22;31071;51.478;5.710;2023-02-08T05:28:16;17.40;66.10
45339;DHT22;31071;51.478;5.710;2023-02-08T05:30:42;17.40;66.10
45339;DHT22;31071;51.478;5.710;2023-02-08T05:33:08;17.30;66.00
45339;DHT22;31071;51.478;5.710;2023-02-08T05:35:33;17.40;66.10
45339;DHT22;31071;51.478;5.710;2023-02-08T05:37:59;17.30;66.20
45339;DHT22;31071;51.478;5.710;2023-02-08T05:40:24;17.20;66.10
45339;DHT22;31071;51.478;5.710;2023-02-08T05:42:50;17.20;66.20
45339;DHT22;31071;51.478;5.710;2023-02-08T05:45:15;17.30;66.10
45339;DHT22;31071;51.478;5.710;2023-02-08T05:47:41;17.30;66.30
45339;DHT22;31071;51.478;5.710;2023-02-08T05:50:07;17.20;66.30
45339;DHT22;31071;51.478;5.710;2023-02-08T05:52:33;17.20;66.30
45339;DHT22;31071;51.478;5.710;2023-02-08T05:54:58;17.20;66.10
45339;DHT22;31071;51.478;5.710;2023-02-08T05:57:24;17.20;66.70
45339;DHT22;31071;51.478;5.710;2023-02-08T05:59:49;17.20;66.10
45339;DHT22;31071;51.478;5.710;2023-02-08T06:02:15;17.20;66.10
45339;DHT22;31071;51.478;5.710;2023-02-08T06:04:40;17.20;66.20
45339;DHT22;31071;51.478;5.710;2023-02-08T06:07:06;17.20;66.10
45339;DHT22;31071;51.478;5.710;2023-02-08T06:09:31;17.10;66.20
45339;DHT22;31071;51.478;5.710;2023-02-08T06:11:57;17.20;66.80
45339;DHT22;31071;51.478;5.710;2023-02-08T06:14:22;17.30;66.50
45339;DHT22;31071;51.478;5.710;2023-02-08T06:16:48;17.50;66.40
45339;DHT22;31071;51.478;5.710;2023-02-08T06:19:13;17.60;65.80
45339;DHT22;31071;51.478;5.710;2023-02-08T06:21:39;17.80;65.50
45339;DHT22;31071;51.478;5.710;2023-02-08T06:24:05;18.10;65.10
45339;DHT22;31071;51.478;5.710;2023-02-08T06:26:32;18.40;64.50
45339;DHT22;31071;51.478;5.710;2023-02-08T06:28:58;18.70;63.90
45339;DHT22;31071;51.478;5.710;2023-02-08T06:31:24;19.00;63.20
45339;DHT22;31071;51.478;5.710;2023-02-08T06:33:49;19.20;62.80
45339;DHT22;31071;51.478;5.710;2023-02-08T06:36:15;19.40;62.30
45339;DHT22;31071;51.478;5.710;2023-02-08T06:38:40;19.60;61.90
45339;DHT22;31071;51.478;5.710;2023-02-08T06:41:06;19.70;61.50
45339;DHT22;31071;51.478;5.710;2023-02-08T06:43:32;19.70;61.30
45339;DHT22;31071;51.478;5.710;2023-02-08T06:45:57;19.80;61.30
45339;DHT22;31071;51.478;5.710;2023-02-08T06:48:23;19.80;61.30
45339;DHT22;31071;51.478;5.710;2023-02-08T06:50:51;19.70;61.40
45339;DHT22;31071;51.478;5.710;2023-02-08T06:53:17;19.80;61.60
45339;DHT22;31071;51.478;5.710;2023-02-08T06:55:49;19.80;61.60
45339;DHT22;31071;51.478;5.710;2023-02-08T06:58:16;20.00;61.30
45339;DHT22;31071;51.478;5.710;2023-02-08T07:00:41;19.90;61.00
45339;DHT22;31071;51.478;5.710;2023-02-08T07:03:10;19.70;59.70
45339;DHT22;31071;51.478;5.710;2023-02-08T07:05:36;19.50;59.60
45339;DHT22;31071;51.478;5.710;2023-02-08T07:08:03;19.50;59.80
45339;DHT22;31071;51.478;5.710;2023-02-08T07:10:28;19.40;59.70
45339;DHT22;31071;51.478;5.710;2023-02-08T07:12:54;19.30;59.70
45339;DHT22;31071;51.478;5.710;2023-02-08T07:15:19;19.30;59.50
45339;DHT22;31071;51.478;5.710;2023-02-08T07:17:45;19.40;59.60
45339;DHT22;31071;51.478;5.710;2023-02-08T07:20:11;19.40;59.50
45339;DHT22;31071;51.478;5.710;2023-02-08T07:22:37;19.50;59.40
45339;DHT22;31071;51.478;5.710;2023-02-08T07:25:04;19.50;59.10
45339;DHT22;31071;51.478;5.710;2023-02-08T07:27:30;19.50;58.90
45339;DHT22;31071;51.478;5.710;2023-02-08T07:29:55;19.70;59.40
45339;DHT22;31071;51.478;5.710;2023-02-08T07:32:21;19.80;58.60
45339;DHT22;31071;51.478;5.710;2023-02-08T07:34:46;20.00;58.70
45339;DHT22;31071;51.478;5.710;2023-02-08T07:37:12;20.10;58.90
45339;DHT22;31071;51.478;5.710;2023-02-08T07:39:37;20.20;59.00
45339;DHT22;31071;51.478;5.710;2023-02-08T07:42:04;20.30;59.00
45339;DHT22;31071;51.478;5.710;2023-02-08T07:44:31;20.40;59.20
45339;DHT22;31071;51.478;5.710;2023-02-08T07:46:56;20.40;59.40
45339;DHT22;31071;51.478;5.710;2023-02-08T07:49:22;20.40;59.40
45339;DHT22;31071;51.478;5.710;2023-02-08T07:51:47;20.40;59.60
45339;DHT22;31071;51.478;5.710;2023-02-08T07:54:13;20.50;59.90
45339;DHT22;31071;51.478;5.710;2023-02-08T07:56:38;20.40;59.90
45339;DHT22;31071;51.478;5.710;2023-02-08T07:59:04;20.40;60.60
45339;DHT22;31071;51.478;5.710;2023-02-08T08:01:29;20.40;61.50
45339;DHT22;31071;51.478;5.710;2023-02-08T08:03:55;20.50;61.90
45339;DHT22;31071;51.478;5.710;2023-02-08T08:06:22;20.40;61.60
45339;DHT22;31071;51.478;5.710;2023-02-08T08:08:47;20.50;61.50
45339;DHT22;31071;51.478;5.710;2023-02-08T08:11:14;20.40;61.40
45339;DHT22;31071;51.478;5.710;2023-02-08T08:13:40;20.40;61.70
45339;DHT22;31071;51.478;5.710;2023-02-08T08:16:05;20.40;61.80
45339;DHT22;31071;51.478;5.710;2023-02-08T08:18:31;20.30;61.90
45339;DHT22;31071;51.478;5.710;2023-02-08T08:20:56;20.30;61.90
45339;DHT22;31071;51.478;5.710;2023-02-08T08:23:22;20.20;60.80
45339;DHT22;31071;51.478;5.710;2023-02-08T08:25:48;20.10;59.00
45339;DHT22;31071;51.478;5.710;2023-02-08T08:28:14;20.00;59.50
45339;DHT22;31071;51.478;5.710;2023-02-08T08:30:43;20.00;59.10
45339;DHT22;31071;51.478;5.710;2023-02-08T08:33:10;19.90;58.60
45339;DHT22;31071;51.478;5.710;2023-02-08T08:35:35;19.90;58.90
45339;DHT22;31071;51.478;5.710;2023-02-08T08:38:01;19.80;59.00
45339;DHT22;31071;51.478;5.710;2023-02-08T08:40:26;19.80;59.20
45339;DHT22;31071;51.478;5.710;2023-02-08T08:42:52;19.80;59.30
45339;DHT22;31071;51.478;5.710;2023-02-08T08:45:17;19.70;59.20
45339;DHT22;31071;51.478;5.710;2023-02-08T08:47:43;19.70;59.40
45339;DHT22;31071;51.478;5.710;2023-02-08T08:50:08;19.70;59.70
45339;DHT22;31071;51.478;5.710;2023-02-08T08:52:34;19.70;59.80
45339;DHT22;31071;51.478;5.710;2023-02-08T08:54:59;19.70;59.90
45339;DHT22;31071;51.478;5.710;2023-02-08T08:57:25;19.70;60.20
45339;DHT22;31071;51.478;5.710;2023-02-08T08:59:50;19.70;60.30
45339;DHT22;31071;51.478;5.710;2023-02-08T09:02:16;19.70;60.20
45339;DHT22;31071;51.478;5.710;2023-02-08T09:04:41;19.80;60.50
45339;DHT22;31071;51.478;5.710;2023-02-08T09:07:08;19.80;60.20
45339;DHT22;31071;51.478;5.710;2023-02-08T09:09:34;19.90;60.20
45339;DHT22;31071;51.478;5.710;2023-02-08T09:12:01;19.90;60.00
45339;DHT22;31071;51.478;5.710;2023-02-08T09:14:26;19.90;59.90
45339;DHT22;31071;51.478;5.710;2023-02-08T09:16:52;19.90;59.70
45339;DHT22;31071;51.478;5.710;2023-02-08T09:19:17;20.00;59.80
45339;DHT22;31071;51.478;5.710;2023-02-08T09:21:44;20.00;59.60
45339;DHT22;31071;51.478;5.710;2023-02-08T09:24:10;20.00;59.60
45339;DHT22;31071;51.478;5.710;2023-02-08T09:26:36;20.00;59.40
45339;DHT22;31071;51.478;5.710;2023-02-08T09:29:02;20.10;59.30
45339;DHT22;31071;51.478;5.710;2023-02-08T09:31:33;20.10;59.10
45339;DHT22;31071;51.478;5.710;2023-02-08T09:34:02;20.20;59.10
45339;DHT22;31071;51.478;5.710;2023-02-08T09:36:30;20.10;58.50
45339;DHT22;31071;51.478;5.710;2023-02-08T09:38:59;20.20;57.00
45339;DHT22;31071;51.478;5.710;2023-02-08T09:41:56;20.30;57.40
45339;DHT22;31071;51.478;5.710;2023-02-08T09:44:55;20.20;57.70
45339;DHT22;31071;51.478;5.710;2023-02-08T09:50:10;20.40;57.70
45339;DHT22;31071;51.478;5.710;2023-02-08T09:52:48;20.50;57.70
45339;DHT22;31071;51.478;5.710;2023-02-08T09:55:29;20.50;57.70
45339;DHT22;31071;51.478;5.710;2023-02-08T09:57:57;20.60;57.80
45339;DHT22;31071;51.478;5.710;2023-02-08T10:00:40;20.50;57.90
45339;DHT22;31071;51.478;5.710;2023-02-08T10:03:20;20.50;58.10
45339;DHT22;31071;51.478;5.710;2023-02-08T10:05:46;20.40;58.10
45339;DHT22;31071;51.478;5.710;2023-02-08T10:08:12;20.50;58.20
45339;DHT22;31071;51.478;5.710;2023-02-08T10:11:04;20.50;58.10
45339;DHT22;31071;51.478;5.710;2023-02-08T10:13:58;20.50;58.10
45339;DHT22;31071;51.478;5.710;2023-02-08T10:19:29;20.60;57.90
45339;DHT22;31071;51.478;5.710;2023-02-08T10:22:22;20.90;58.00
45339;DHT22;31071;51.478;5.710;2023-02-08T10:55:31;14.00;42.10
45339;DHT22;31071;51.478;5.710;2023-02-08T15:02:14;11.30;37.60
45339;DHT22;31071;51.478;5.710;2023-02-08T15:21:02;10.60;41.90
45339;DHT22;31071;51.478;5.710;2023-02-08T15:23:29;10.70;42.20
45339;DHT22;31071;51.478;5.710;2023-02-08T15:28:23;10.10;42.40
45339;DHT22;31071;51.478;5.710;2023-02-08T15:30:56;11.20;41.10
45339;DHT22;31071;51.478;5.710;2023-02-08T15:33:22;10.40;40.80
45339;DHT22;31071;51.478;5.710;2023-02-08T15:42:32;9.70;43.10
